Terminal Aerodrome Forecast
Issued by NWS

Home | Current Version | Previous Version | Text Only | Print | Product List | Glossary On
Versions: 1 2 3 4 5 6 7 8 9 10 11 12 13 14 15 16 17 18
000
FTUS45 KPIH 051735
TAFSUN
TAF
KSUN 051735Z 0518/0618 32008KT P6SM SKC
     FM052100 15008KT P6SM FEW020
     FM060300 31008KT P6SM SCT020
     FM061000 32007KT P6SM VCSH SCT020 BKN030=

USA.gov is the U.S. government's official web portal to all federal, state and local government web resources and services.